createdAt,value
2022-09-02T00:01:16.475Z,18.10
2022-09-02T00:03:44.590Z,18.10
2022-09-02T00:06:12.860Z,18.00
2022-09-02T00:08:41.051Z,18.00
2022-09-02T00:11:09.576Z,17.90
2022-09-02T00:13:38.355Z,17.90
2022-09-02T00:16:06.474Z,17.90
2022-09-02T00:18:36.162Z,17.90
2022-09-02T00:21:04.357Z,17.90
2022-09-02T00:23:32.087Z,17.80
2022-09-02T00:26:00.219Z,17.70
2022-09-02T00:28:27.951Z,17.70
2022-09-02T00:30:55.652Z,17.60
2022-09-02T00:33:23.379Z,17.60
2022-09-02T00:35:52.508Z,17.60
2022-09-02T00:38:20.600Z,17.60
2022-09-02T00:40:49.466Z,17.60
2022-09-02T00:43:24.013Z,17.60
2022-09-02T00:45:52.429Z,17.60
2022-09-02T00:48:20.224Z,17.60
2022-09-02T00:50:48.097Z,17.60
2022-09-02T00:53:17.295Z,17.50
2022-09-02T00:55:47.362Z,17.50
2022-09-02T00:58:17.455Z,17.50
2022-09-02T01:00:46.789Z,17.50
2022-09-02T01:03:17.854Z,17.40
2022-09-02T01:05:48.087Z,17.40
2022-09-02T01:08:19.435Z,17.40
2022-09-02T01:10:48.039Z,17.30
2022-09-02T01:13:17.112Z,17.30
2022-09-02T01:15:46.354Z,17.20
2022-09-02T01:18:17.510Z,17.20
2022-09-02T01:20:45.566Z,17.20
2022-09-02T01:23:15.051Z,17.20
2022-09-02T01:25:42.999Z,17.10
2022-09-02T01:28:12.430Z,17.10
2022-09-02T01:30:42.161Z,17.10
2022-09-02T01:33:10.035Z,17.10
2022-09-02T01:35:37.837Z,17.00
2022-09-02T01:38:06.029Z,17.00
2022-09-02T01:40:35.291Z,17.00
2022-09-02T01:43:07.157Z,17.00
2022-09-02T01:45:35.661Z,17.00
2022-09-02T01:48:03.475Z,16.90
2022-09-02T01:50:31.779Z,16.90
2022-09-02T01:53:01.658Z,16.90
2022-09-02T01:55:29.392Z,16.90
2022-09-02T01:57:58.469Z,16.90
2022-09-02T02:00:26.323Z,16.80
2022-09-02T02:02:54.270Z,16.80
2022-09-02T02:05:22.487Z,16.80
2022-09-02T02:07:50.566Z,16.80
2022-09-02T02:10:19.310Z,16.80
2022-09-02T02:12:47.142Z,16.70
2022-09-02T02:15:18.941Z,16.70
2022-09-02T02:17:47.086Z,16.70
2022-09-02T02:20:16.069Z,16.70
2022-09-02T02:22:44.046Z,16.60
2022-09-02T02:25:12.054Z,16.60
2022-09-02T02:27:39.856Z,16.60
2022-09-02T02:30:12.508Z,16.60
2022-09-02T02:32:41.917Z,16.50
2022-09-02T02:35:10.991Z,16.50
2022-09-02T02:37:38.855Z,16.50
2022-09-02T02:40:07.456Z,16.50
2022-09-02T02:42:35.511Z,16.50
2022-09-02T02:45:03.275Z,16.50
2022-09-02T02:47:31.009Z,16.40
2022-09-02T02:50:00.122Z,16.40
2022-09-02T02:52:28.152Z,16.40
2022-09-02T02:54:55.931Z,16.40
2022-09-02T02:57:23.693Z,16.40
2022-09-02T02:59:51.573Z,16.40
2022-09-02T03:02:19.463Z,16.40
2022-09-02T03:04:47.285Z,16.40
2022-09-02T03:07:16.394Z,16.40
2022-09-02T03:09:44.139Z,16.40
2022-09-02T03:12:11.914Z,16.40
2022-09-02T03:14:39.647Z,16.40
2022-09-02T03:17:07.563Z,16.40
2022-09-02T03:19:35.316Z,16.30
2022-09-02T03:22:03.121Z,16.30
2022-09-02T03:24:32.465Z,16.30
2022-09-02T03:27:00.218Z,16.30
2022-09-02T03:29:28.074Z,16.30
2022-09-02T03:31:55.866Z,16.30
2022-09-02T03:34:24.785Z,16.30
2022-09-02T03:36:52.607Z,16.20
2022-09-02T03:39:21.185Z,16.20
2022-09-02T03:41:50.771Z,16.20
2022-09-02T03:44:18.534Z,16.20
2022-09-02T03:46:46.400Z,16.10
2022-09-02T03:49:14.875Z,16.10
2022-09-02T03:51:43.313Z,16.10
2022-09-02T03:54:11.500Z,16.10
2022-09-02T03:56:39.326Z,16.10
2022-09-02T03:59:09.049Z,16.00
2022-09-02T04:01:37.154Z,16.00
2022-09-02T04:04:05.072Z,16.00
2022-09-02T04:06:33.288Z,16.00
2022-09-02T04:09:01.054Z,15.90
2022-09-02T04:11:28.797Z,15.90
2022-09-02T04:13:56.564Z,15.90
2022-09-02T04:17:00.879Z,15.80
2022-09-02T04:20:04.876Z,15.80
2022-09-02T04:22:34.199Z,15.80
2022-09-02T04:25:01.982Z,15.80
2022-09-02T04:27:30.736Z,15.70
2022-09-02T04:29:58.630Z,15.70
2022-09-02T04:32:26.598Z,15.70
2022-09-02T04:34:54.368Z,15.70
2022-09-02T04:37:22.104Z,15.70
2022-09-02T04:39:51.387Z,15.60
2022-09-02T04:42:19.123Z,15.70
2022-09-02T04:44:47.493Z,15.60
2022-09-02T04:47:15.421Z,15.60
2022-09-02T04:49:43.190Z,15.60
2022-09-02T04:52:11.460Z,15.60
2022-09-02T04:54:39.205Z,15.60
2022-09-02T04:57:08.409Z,15.50
2022-09-02T04:59:36.971Z,15.60
2022-09-02T05:02:05.152Z,15.50
2022-09-02T05:04:33.466Z,15.50
2022-09-02T05:07:01.898Z,15.50
2022-09-02T05:09:29.784Z,15.50
2022-09-02T05:11:58.344Z,15.50
2022-09-02T05:14:27.454Z,15.40
2022-09-02T05:16:57.292Z,15.40
2022-09-02T05:19:25.131Z,15.40
2022-09-02T05:21:56.082Z,15.40
2022-09-02T05:24:26.662Z,15.40
2022-09-02T05:26:54.762Z,15.40
2022-09-02T05:29:23.721Z,15.40
2022-09-02T05:31:53.068Z,15.40
2022-09-02T05:34:20.848Z,15.40
2022-09-02T05:36:48.620Z,15.40
2022-09-02T05:39:16.391Z,15.40
2022-09-02T05:41:44.424Z,15.40
2022-09-02T05:44:12.740Z,15.50
2022-09-02T05:46:40.520Z,15.50
2022-09-02T05:49:17.725Z,15.50
2022-09-02T05:51:47.369Z,15.50
2022-09-02T05:54:16.224Z,15.50
2022-09-02T05:56:45.282Z,15.50
2022-09-02T05:59:13.172Z,15.50
2022-09-02T06:01:41.298Z,15.60
2022-09-02T06:04:10.647Z,15.60
2022-09-02T06:06:38.849Z,15.70
2022-09-02T06:09:08.528Z,15.90
2022-09-02T06:11:36.871Z,16.00
2022-09-02T06:14:05.824Z,16.20
2022-09-02T06:16:33.645Z,16.40
2022-09-02T06:19:03.749Z,16.60
2022-09-02T06:21:34.106Z,16.90
2022-09-02T06:24:01.912Z,17.10
2022-09-02T06:26:29.737Z,17.20
2022-09-02T06:28:57.528Z,17.40
2022-09-02T06:31:25.336Z,17.60
2022-09-02T06:33:54.265Z,17.70
2022-09-02T06:36:22.679Z,17.80
2022-09-02T06:38:58.574Z,17.90
2022-09-02T06:41:28.350Z,18.00
2022-09-02T06:43:57.491Z,18.10
2022-09-02T06:46:29.207Z,18.20
2022-09-02T06:48:57.012Z,18.20
2022-09-02T06:51:25.898Z,18.20
2022-09-02T06:53:53.717Z,18.30
2022-09-02T06:56:23.613Z,18.40
2022-09-02T06:58:51.507Z,18.40
2022-09-02T07:01:20.136Z,18.40
2022-09-02T07:04:05.430Z,18.50
2022-09-02T07:06:37.534Z,18.60
2022-09-02T07:09:05.683Z,18.70
2022-09-02T07:11:35.403Z,18.80
2022-09-02T07:14:03.658Z,19.00
2022-09-02T07:16:33.192Z,19.10
2022-09-02T07:19:01.356Z,19.20
2022-09-02T07:21:29.691Z,19.30
2022-09-02T07:23:59.126Z,19.40
2022-09-02T07:26:26.967Z,19.50
2022-09-02T07:28:56.773Z,19.60
2022-09-02T07:31:24.644Z,19.70
2022-09-02T07:33:52.445Z,19.80
2022-09-02T07:36:21.633Z,19.90
2022-09-02T07:38:49.625Z,20.00
2022-09-02T07:41:17.429Z,20.10
2022-09-02T07:43:48.441Z,20.20
2022-09-02T07:46:20.711Z,20.40
2022-09-02T07:48:50.158Z,20.50
2022-09-02T07:51:18.367Z,20.60
2022-09-02T07:53:46.161Z,20.60
2022-09-02T07:56:14.864Z,20.70
2022-09-02T07:58:43.140Z,20.70
2022-09-02T08:01:11.169Z,20.70
2022-09-02T08:03:41.346Z,20.80
2022-09-02T08:06:09.572Z,20.80
2022-09-02T08:08:37.345Z,21.10
2022-09-02T08:11:05.195Z,21.40
2022-09-02T08:13:32.962Z,21.80
2022-09-02T08:16:01.119Z,22.20
2022-09-02T08:18:28.938Z,22.50
2022-09-02T08:20:58.107Z,22.80
2022-09-02T08:23:36.701Z,23.10
2022-09-02T08:26:06.392Z,23.40
2022-09-02T08:28:35.108Z,23.70
2022-09-02T08:31:05.539Z,23.80
2022-09-02T08:33:33.276Z,24.00
2022-09-02T08:36:04.685Z,24.10
2022-09-02T08:38:32.426Z,24.20
2022-09-02T08:41:00.736Z,24.30
2022-09-02T08:43:31.375Z,24.50
2022-09-02T08:46:01.722Z,24.60
2022-09-02T08:48:33.911Z,24.70
2022-09-02T08:51:04.369Z,24.80
2022-09-02T08:53:35.703Z,24.90
2022-09-02T08:56:05.015Z,25.00
2022-09-02T08:58:35.288Z,25.10
2022-09-02T09:01:08.108Z,25.20
2022-09-02T09:03:39.662Z,25.30
2022-09-02T09:06:09.970Z,25.30
2022-09-02T09:08:44.951Z,25.30
2022-09-02T09:11:17.160Z,25.40
2022-09-02T09:13:54.208Z,25.50
2022-09-02T09:16:26.408Z,25.60
2022-09-02T09:19:01.745Z,25.70
2022-09-02T09:21:31.532Z,25.60
2022-09-02T09:24:02.044Z,25.70
2022-09-02T09:26:31.050Z,25.80
2022-09-02T09:28:59.743Z,25.80
2022-09-02T09:31:31.128Z,25.90
2022-09-02T09:33:59.649Z,25.80
2022-09-02T09:36:44.881Z,25.80
2022-09-02T09:39:21.618Z,25.90
2022-09-02T09:41:50.004Z,25.90
2022-09-02T09:44:35.455Z,26.10
2022-09-02T09:47:04.220Z,26.20
2022-09-02T09:49:33.117Z,26.40
2022-09-02T09:52:00.934Z,26.60
2022-09-02T09:54:30.099Z,26.70
2022-09-02T09:57:13.597Z,26.80
2022-09-02T09:59:47.303Z,26.90
2022-09-02T10:02:20.624Z,27.10
2022-09-02T10:04:48.918Z,27.10
2022-09-02T10:07:34.714Z,27.30
2022-09-02T10:10:13.053Z,27.40
2022-09-02T10:12:41.082Z,27.50
2022-09-02T10:15:09.449Z,27.70
2022-09-02T10:17:51.978Z,27.70
2022-09-02T10:20:26.005Z,27.80
2022-09-02T10:23:09.286Z,28.00
2022-09-02T10:25:56.769Z,28.00
2022-09-02T10:28:38.256Z,28.20
2022-09-02T10:31:12.950Z,28.30
2022-09-02T10:33:57.349Z,28.30
2022-09-02T10:36:34.838Z,28.40
2022-09-02T10:39:12.634Z,28.40
2022-09-02T10:41:47.252Z,28.40
2022-09-02T10:44:35.071Z,28.50
2022-09-02T10:47:05.160Z,28.50
2022-09-02T10:50:02.034Z,28.50
2022-09-02T10:52:44.466Z,28.60
2022-09-02T10:55:22.461Z,28.70
2022-09-02T10:57:56.630Z,28.90
2022-09-02T11:00:24.967Z,29.00
2022-09-02T11:03:02.563Z,29.20
2022-09-02T11:05:39.863Z,29.30
2022-09-02T11:08:12.185Z,29.40
2022-09-02T11:10:44.447Z,29.60
2022-09-02T11:13:22.613Z,29.70
2022-09-02T11:15:57.497Z,29.70
2022-09-02T11:18:33.033Z,29.90
2022-09-02T11:21:10.370Z,30.00
2022-09-02T11:23:43.062Z,30.30
2022-09-02T11:26:17.812Z,30.50
2022-09-02T11:28:49.225Z,30.70
2022-09-02T11:31:20.566Z,31.10
2022-09-02T11:33:53.696Z,31.50
2022-09-02T11:36:21.650Z,32.00
2022-09-02T11:38:52.534Z,32.40
2022-09-02T11:41:36.745Z,32.80
2022-09-02T11:44:20.633Z,33.30
2022-09-02T11:47:07.284Z,33.90
2022-09-02T11:49:48.364Z,34.60
2022-09-02T11:52:40.759Z,35.50
2022-09-02T11:55:11.156Z,36.50
2022-09-02T11:57:41.398Z,37.60
2022-09-02T12:00:13.652Z,38.60
2022-09-02T12:02:45.728Z,39.50
2022-09-02T12:05:34.194Z,40.20
2022-09-02T12:08:04.299Z,40.90
2022-09-02T12:11:08.896Z,41.80
2022-09-02T12:13:38.545Z,42.50
2022-09-02T12:16:37.507Z,43.30
2022-09-02T12:19:23.739Z,43.40
2022-09-02T12:22:10.514Z,44.10
2022-09-02T12:24:51.006Z,44.60
2022-09-02T12:27:26.579Z,45.10
2022-09-02T12:29:55.662Z,45.20
2022-09-02T12:32:43.885Z,45.50
2022-09-02T12:35:13.443Z,45.80
2022-09-02T12:37:56.940Z,45.80
2022-09-02T12:40:33.816Z,45.60
2022-09-02T12:43:03.954Z,45.90
2022-09-02T12:45:33.635Z,46.20
2022-09-02T12:48:09.145Z,46.40
2022-09-02T12:50:53.646Z,46.60
2022-09-02T12:53:38.168Z,46.50
2022-09-02T12:56:17.372Z,45.60
2022-09-02T12:58:46.754Z,46.00
2022-09-02T13:01:17.578Z,46.10
2022-09-02T13:03:51.005Z,46.40
2022-09-02T13:06:22.072Z,46.20
2022-09-02T13:09:08.874Z,46.00
2022-09-02T13:11:47.051Z,46.00
2022-09-02T13:14:30.806Z,46.40
2022-09-02T13:17:25.879Z,46.70
2022-09-02T13:20:20.282Z,46.60
2022-09-02T13:22:58.201Z,46.00
2022-09-02T13:25:32.889Z,45.80
2022-09-02T13:28:29.172Z,45.80
2022-09-02T13:31:03.036Z,45.80
2022-09-02T13:33:31.274Z,45.40
2022-09-02T13:35:59.728Z,45.40
2022-09-02T13:38:28.494Z,45.20
2022-09-02T13:40:56.675Z,44.80
2022-09-02T13:43:27.156Z,44.00
2022-09-02T13:46:00.499Z,43.40
2022-09-02T13:48:31.177Z,42.40
2022-09-02T13:51:09.139Z,41.20
2022-09-02T13:53:45.676Z,39.50
2022-09-02T13:56:30.948Z,38.50
2022-09-02T13:59:00.412Z,37.20
2022-09-02T14:01:31.503Z,36.20
2022-09-02T14:04:01.370Z,35.20
2022-09-02T14:06:33.306Z,34.50
2022-09-02T14:09:04.152Z,33.70
2022-09-02T14:11:39.239Z,33.20
2022-09-02T14:14:09.560Z,32.70
2022-09-02T14:16:38.249Z,32.20
2022-09-02T14:19:08.252Z,31.90
2022-09-02T14:21:37.195Z,31.50
2022-09-02T14:24:06.113Z,31.20
2022-09-02T14:26:37.564Z,31.00
2022-09-02T14:29:09.145Z,30.70
2022-09-02T14:31:37.918Z,30.50
2022-09-02T14:34:25.966Z,30.20
2022-09-02T14:36:54.041Z,30.00
2022-09-02T14:39:22.112Z,29.80
2022-09-02T14:41:52.934Z,29.60
2022-09-02T14:44:28.762Z,29.40
2022-09-02T14:46:59.769Z,29.20
2022-09-02T14:49:29.489Z,29.00
2022-09-02T14:51:59.878Z,28.80
2022-09-02T14:54:39.729Z,28.70
2022-09-02T14:57:20.465Z,28.60
2022-09-02T14:59:51.612Z,28.50
2022-09-02T15:02:25.370Z,28.30
2022-09-02T15:04:53.389Z,28.20
2022-09-02T15:07:21.378Z,28.10
2022-09-02T15:09:50.907Z,28.00
2022-09-02T15:12:20.585Z,27.90
2022-09-02T15:14:49.860Z,27.80
2022-09-02T15:17:17.875Z,27.70
2022-09-02T15:19:45.911Z,27.70
2022-09-02T15:22:13.971Z,27.60
2022-09-02T15:24:44.004Z,27.50
2022-09-02T15:27:12.323Z,27.40
2022-09-02T15:29:40.971Z,27.40
2022-09-02T15:32:10.336Z,27.30
2022-09-02T15:34:38.489Z,27.30
2022-09-02T15:37:09.769Z,27.30
2022-09-02T15:39:41.282Z,27.20
2022-09-02T15:42:12.187Z,27.10
2022-09-02T15:44:40.132Z,27.10
2022-09-02T15:47:08.131Z,27.00
2022-09-02T15:49:37.498Z,27.00
2022-09-02T15:52:06.038Z,26.90
2022-09-02T15:54:33.916Z,26.80
2022-09-02T15:57:01.958Z,26.80
2022-09-02T15:59:29.911Z,26.70
2022-09-02T16:01:58.646Z,26.70
2022-09-02T16:04:28.231Z,26.60
2022-09-02T16:06:57.594Z,26.60
2022-09-02T16:09:26.254Z,26.50
2022-09-02T16:11:56.084Z,26.50
2022-09-02T16:14:25.543Z,26.50
2022-09-02T16:16:55.807Z,26.40
2022-09-02T16:19:27.595Z,26.40
2022-09-02T16:21:59.310Z,26.30
2022-09-02T16:24:28.105Z,26.20
2022-09-02T16:26:56.243Z,26.20
2022-09-02T16:29:28.165Z,26.20
2022-09-02T16:34:46.676Z,26.10
2022-09-02T16:37:17.577Z,26.10
2022-09-02T16:39:45.609Z,26.00
2022-09-02T16:42:13.679Z,26.00
2022-09-02T16:44:41.750Z,25.90
2022-09-02T16:47:12.942Z,25.90
2022-09-02T16:49:42.117Z,25.90
2022-09-02T16:52:10.618Z,25.80
2022-09-02T16:54:40.928Z,25.80
2022-09-02T16:57:09.304Z,25.70
2022-09-02T16:59:37.405Z,25.70
2022-09-02T17:02:05.762Z,25.70
2022-09-02T17:04:33.827Z,25.60
2022-09-02T17:07:01.891Z,25.60
2022-09-02T17:09:31.361Z,25.60
2022-09-02T17:12:00.757Z,25.50
2022-09-02T17:14:28.681Z,25.50
2022-09-02T17:16:56.702Z,25.40
2022-09-02T17:19:28.595Z,25.40
2022-09-02T17:22:00.032Z,25.30
2022-09-02T17:24:30.537Z,25.30
2022-09-02T17:27:01.172Z,25.30
2022-09-02T17:29:49.681Z,25.20
2022-09-02T17:32:18.140Z,25.20
2022-09-02T17:34:46.293Z,25.10
2022-09-02T17:37:17.238Z,25.10
2022-09-02T17:39:46.150Z,25.00
2022-09-02T17:42:15.626Z,25.00
2022-09-02T17:44:43.684Z,24.90
2022-09-02T17:47:14.163Z,24.90
2022-09-02T17:49:44.331Z,24.80
2022-09-02T17:52:14.126Z,24.70
2022-09-02T17:54:43.293Z,24.70
2022-09-02T17:57:39.041Z,24.60
2022-09-02T18:00:13.375Z,24.50
2022-09-02T18:03:04.135Z,24.50
2022-09-02T18:05:39.933Z,24.40
2022-09-02T18:08:16.558Z,24.30
2022-09-02T18:10:57.518Z,24.30
2022-09-02T18:13:32.689Z,24.20
2022-09-02T18:16:20.944Z,24.10
2022-09-02T18:18:57.143Z,24.00
2022-09-02T18:21:30.713Z,24.00
2022-09-02T18:24:07.891Z,23.90
2022-09-02T18:26:49.616Z,23.80
2022-09-02T18:29:36.001Z,23.70
2022-09-02T18:32:14.525Z,23.70
2022-09-02T18:34:52.768Z,23.60
2022-09-02T18:37:32.058Z,23.60
2022-09-02T18:40:12.900Z,23.50
2022-09-02T18:42:50.261Z,23.50
2022-09-02T18:45:25.098Z,23.50
2022-09-02T18:47:59.963Z,23.40
2022-09-02T18:50:49.198Z,23.40
2022-09-02T18:53:23.154Z,23.40
2022-09-02T18:55:53.901Z,23.40
2022-09-02T18:58:34.142Z,23.30
2022-09-02T19:01:07.109Z,23.30
2022-09-02T19:03:38.091Z,23.20
2022-09-02T19:06:09.070Z,23.30
2022-09-02T19:08:38.203Z,23.20
2022-09-02T19:11:08.968Z,23.20
2022-09-02T19:13:45.925Z,23.20
2022-09-02T19:16:16.442Z,23.10
2022-09-02T19:18:46.143Z,23.10
2022-09-02T19:21:18.879Z,23.10
2022-09-02T19:23:48.945Z,23.10
2022-09-02T19:26:17.718Z,23.00
2022-09-02T19:28:48.339Z,23.00
2022-09-02T19:31:21.748Z,23.00
2022-09-02T19:33:54.877Z,23.00
2022-09-02T19:36:26.402Z,23.00
2022-09-02T19:38:59.955Z,22.90
2022-09-02T19:41:28.048Z,22.90
2022-09-02T19:43:56.122Z,22.90
2022-09-02T19:49:14.292Z,22.90
2022-09-02T19:51:42.399Z,22.90
2022-09-02T19:54:12.881Z,22.80
2022-09-02T19:56:41.128Z,22.80
2022-09-02T19:59:10.877Z,22.80
2022-09-02T20:01:39.424Z,22.80
2022-09-02T20:04:07.615Z,22.80
2022-09-02T20:06:36.936Z,22.80
2022-09-02T20:09:05.920Z,22.70
2022-09-02T20:11:34.915Z,22.70
2022-09-02T20:14:05.359Z,22.70
2022-09-02T20:16:34.272Z,22.70
2022-09-02T20:19:02.596Z,22.60
2022-09-02T20:21:33.190Z,22.60
2022-09-02T20:24:06.818Z,22.60
2022-09-02T20:26:48.929Z,22.60
2022-09-02T20:29:28.920Z,22.60
2022-09-02T20:32:07.415Z,22.50
2022-09-02T20:34:57.094Z,22.50
2022-09-02T20:37:38.601Z,22.40
2022-09-02T20:40:21.822Z,22.40
2022-09-02T20:43:13.772Z,22.30
2022-09-02T20:45:51.982Z,22.30
2022-09-02T20:48:39.421Z,22.30
2022-09-02T20:51:13.101Z,22.30
2022-09-02T20:54:01.793Z,22.20
2022-09-02T20:56:40.152Z,22.20
2022-09-02T20:59:18.230Z,22.20
2022-09-02T21:01:47.974Z,22.10
2022-09-02T21:04:35.831Z,22.10
2022-09-02T21:07:09.456Z,22.10
2022-09-02T21:09:46.726Z,22.10
2022-09-02T21:12:26.855Z,22.00
2022-09-02T21:15:00.187Z,22.00
2022-09-02T21:17:37.194Z,21.90
2022-09-02T21:20:14.784Z,21.90
2022-09-02T21:22:48.067Z,21.90
2022-09-02T21:25:24.785Z,21.90
2022-09-02T21:27:58.662Z,21.90
2022-09-02T21:30:29.666Z,21.90
2022-09-02T21:33:00.039Z,21.80
2022-09-02T21:35:30.861Z,21.80
2022-09-02T21:38:03.446Z,21.80
2022-09-02T21:40:44.813Z,21.80
2022-09-02T21:43:31.006Z,21.80
2022-09-02T21:46:12.291Z,21.70
2022-09-02T21:48:55.378Z,21.70
2022-09-02T21:51:31.712Z,21.70
2022-09-02T21:54:11.255Z,21.70
2022-09-02T21:56:55.676Z,21.70
2022-09-02T21:59:41.559Z,21.70
2022-09-02T22:02:14.952Z,21.70
2022-09-02T22:04:56.215Z,21.70
2022-09-02T22:07:28.890Z,21.60
2022-09-02T22:10:08.599Z,21.50
2022-09-02T22:12:39.699Z,21.50
2022-09-02T22:15:14.915Z,21.40
2022-09-02T22:17:51.305Z,21.40
2022-09-02T22:20:23.965Z,21.30
2022-09-02T22:22:55.383Z,21.30
2022-09-02T22:25:23.626Z,21.30
2022-09-02T22:27:58.030Z,21.20
2022-09-02T22:30:31.676Z,21.20
2022-09-02T22:33:06.921Z,21.20
2022-09-02T22:35:41.411Z,21.20
2022-09-02T22:38:16.537Z,21.20
2022-09-02T22:40:49.869Z,21.20
2022-09-02T22:43:24.311Z,21.20
2022-09-02T22:46:16.970Z,21.20
2022-09-02T22:49:09.622Z,21.20
2022-09-02T22:52:01.163Z,21.20
2022-09-02T22:54:30.052Z,21.10
2022-09-02T22:57:03.456Z,21.10
2022-09-02T22:59:48.837Z,21.10
2022-09-02T23:02:23.252Z,21.10
2022-09-02T23:05:04.958Z,21.00
2022-09-02T23:07:33.285Z,21.00
2022-09-02T23:10:02.900Z,21.00
2022-09-02T23:12:37.826Z,20.90
2022-09-02T23:15:23.365Z,20.90
2022-09-02T23:18:01.455Z,20.80
2022-09-02T23:20:40.206Z,20.70
2022-09-02T23:23:32.986Z,20.60
2022-09-02T23:26:10.964Z,20.60
2022-09-02T23:28:57.998Z,20.50
2022-09-02T23:31:34.338Z,20.50
2022-09-02T23:34:14.996Z,20.50
2022-09-02T23:36:53.549Z,20.40
2022-09-02T23:39:34.888Z,20.40
2022-09-02T23:42:03.062Z,20.40
2022-09-02T23:44:31.809Z,20.30
2022-09-02T23:47:09.903Z,20.30
2022-09-02T23:49:47.107Z,20.20
2022-09-02T23:52:26.198Z,20.20
2022-09-02T23:55:05.367Z,20.20
2022-09-02T23:57:57.327Z,20.20
